createdAt,value
2023-01-17T00:00:42.069Z,92.65
2023-01-17T00:02:22.448Z,92.23
2023-01-17T00:04:02.813Z,92.41
2023-01-17T00:05:43.051Z,92.77
2023-01-17T00:07:23.346Z,93.03
2023-01-17T00:09:03.653Z,93.23
2023-01-17T00:10:43.986Z,93.12
2023-01-17T00:12:24.291Z,93.01
2023-01-17T00:14:04.649Z,92.82
2023-01-17T00:15:45.100Z,92.95
2023-01-17T00:17:25.492Z,92.95
2023-01-17T00:19:05.960Z,93.02
2023-01-17T00:20:46.309Z,93.14
2023-01-17T00:22:26.751Z,92.48
2023-01-17T00:24:07.149Z,91.82
2023-01-17T00:25:47.578Z,91.18
2023-01-17T00:27:27.848Z,91.1
2023-01-17T00:29:08.214Z,90.84
2023-01-17T00:30:48.660Z,91.23
2023-01-17T00:32:29.056Z,91.17
2023-01-17T00:34:09.458Z,91.4
2023-01-17T00:35:49.790Z,91.2
2023-01-17T00:37:30.132Z,91.09
2023-01-17T00:39:10.440Z,90.94
2023-01-17T00:40:50.755Z,90.86
2023-01-17T00:42:31.067Z,91.03
2023-01-17T00:44:11.398Z,91.13
2023-01-17T00:45:51.701Z,91.43
2023-01-17T00:47:32.037Z,91.61
2023-01-17T00:49:12.388Z,91.71
2023-01-17T00:50:52.681Z,91.26
2023-01-17T00:52:33.010Z,90.97
2023-01-17T00:54:13.334Z,90.98
2023-01-17T00:55:53.644Z,90.77
2023-01-17T00:57:33.959Z,91.01
2023-01-17T00:59:14.302Z,91.31
2023-01-17T01:00:54.792Z,90.96
2023-01-17T01:02:35.041Z,91.56
2023-01-17T01:04:15.282Z,91.19
2023-01-17T01:05:55.576Z,91.26
2023-01-17T01:07:35.887Z,91.47
2023-01-17T01:09:16.256Z,91.64
2023-01-17T01:12:36.839Z,91.76
2023-01-17T01:14:17.179Z,91.56
2023-01-17T01:15:57.521Z,91.77
2023-01-17T01:17:37.817Z,91.51
2023-01-17T01:19:18.168Z,91.55
2023-01-17T01:20:58.441Z,91.82
2023-01-17T01:22:38.813Z,92.17
2023-01-17T01:24:19.120Z,92.06
2023-01-17T01:25:59.448Z,91.73
2023-01-17T01:27:39.759Z,91.23
2023-01-17T01:29:20.046Z,91.48
2023-01-17T01:31:00.375Z,90.53
2023-01-17T01:32:40.682Z,90.5
2023-01-17T01:34:21.014Z,90.66
2023-01-17T01:36:01.298Z,91.28
2023-01-17T01:37:41.630Z,91.44
2023-01-17T01:39:21.958Z,91.14
2023-01-17T01:41:02.249Z,91.18
2023-01-17T01:42:42.562Z,91.8
2023-01-17T01:44:22.874Z,91.44
2023-01-17T01:46:03.252Z,91.53
2023-01-17T01:47:43.517Z,91.02
2023-01-17T01:49:23.843Z,91.15
2023-01-17T01:51:04.155Z,91.43
2023-01-17T01:52:44.491Z,91.65
2023-01-17T01:54:24.803Z,91.54
2023-01-17T01:56:05.148Z,91.42
2023-01-17T01:57:45.424Z,91.57
2023-01-17T01:59:25.762Z,90.59
2023-01-17T02:01:06.166Z,90.43
2023-01-17T02:02:46.487Z,90.53
2023-01-17T02:04:26.726Z,90.48
2023-01-17T02:06:07.115Z,90.8
2023-01-17T02:07:47.351Z,90.86
2023-01-17T02:09:27.694Z,90.5
2023-01-17T02:11:08.008Z,90.47
2023-01-17T02:12:48.359Z,90.87
2023-01-17T02:14:28.670Z,91.2
2023-01-17T02:16:09.041Z,90.66
2023-01-17T02:17:49.331Z,90.48
2023-01-17T02:19:29.629Z,90.29
2023-01-17T02:21:09.973Z,89.61
2023-01-17T02:22:50.291Z,89.48
2023-01-17T02:24:30.601Z,89.43
2023-01-17T02:26:10.943Z,89.55
2023-01-17T02:27:51.222Z,89.89
2023-01-17T02:29:31.580Z,90.42
2023-01-17T02:31:11.871Z,90.65
2023-01-17T02:32:52.182Z,90.23
2023-01-17T02:34:32.510Z,90.81
2023-01-17T02:36:12.831Z,90.06
2023-01-17T02:37:53.148Z,90.19
2023-01-17T02:39:33.440Z,90.51
2023-01-17T02:41:13.810Z,89.78
2023-01-17T02:42:54.146Z,90.4
2023-01-17T02:44:34.468Z,89.63
2023-01-17T02:46:14.943Z,90.02
2023-01-17T02:47:55.145Z,90.32
2023-01-17T02:49:35.434Z,90.38
2023-01-17T02:51:15.789Z,90.54
2023-01-17T02:52:56.117Z,90.91
2023-01-17T02:54:36.431Z,91.08
2023-01-17T02:56:16.796Z,90.83
2023-01-17T02:57:57.093Z,90.36
2023-01-17T02:59:37.389Z,90.78
2023-01-17T03:01:17.875Z,91.13
2023-01-17T03:02:58.117Z,90.89
2023-01-17T03:04:38.365Z,91.12
2023-01-17T03:06:18.713Z,90.6
2023-01-17T03:07:58.987Z,90.16
2023-01-17T03:09:39.327Z,90.46
2023-01-17T03:11:19.687Z,90.37
2023-01-17T03:12:59.975Z,90.29
2023-01-17T03:14:40.333Z,90.77
2023-01-17T03:16:20.640Z,89.82
2023-01-17T03:18:00.996Z,90.24
2023-01-17T03:19:41.255Z,90.29
2023-01-17T03:21:21.650Z,90.79
2023-01-17T03:23:02.014Z,90.35
2023-01-17T03:24:42.387Z,90.23
2023-01-17T03:26:22.808Z,91.2
2023-01-17T03:28:03.260Z,91.57
2023-01-17T03:29:43.642Z,91.43
2023-01-17T03:31:23.989Z,91.35
2023-01-17T03:33:04.449Z,91.8
2023-01-17T03:34:44.816Z,91.81
2023-01-17T03:36:25.189Z,92.09
2023-01-17T03:38:05.600Z,92.58
2023-01-17T03:39:46.007Z,92.48
2023-01-17T03:41:26.389Z,91.39
2023-01-17T03:43:06.769Z,91.83
2023-01-17T03:44:47.130Z,92.16
2023-01-17T03:46:27.553Z,91.89
2023-01-17T03:48:07.962Z,92.52
2023-01-17T03:49:48.402Z,92.41
2023-01-17T03:51:28.854Z,91.92
2023-01-17T03:53:09.206Z,92.07
2023-01-17T03:54:49.588Z,91.91
2023-01-17T03:56:30.004Z,92.08
2023-01-17T03:58:10.483Z,92.12
2023-01-17T03:59:50.823Z,91.53
2023-01-17T04:01:31.354Z,90.82
2023-01-17T04:03:11.539Z,90.79
2023-01-17T04:04:51.877Z,91.3
2023-01-17T04:06:32.291Z,91.26
2023-01-17T04:08:12.687Z,91.45
2023-01-17T04:09:53.092Z,90.75
2023-01-17T04:11:33.563Z,90.5
2023-01-17T04:13:13.913Z,90.84
2023-01-17T04:14:54.246Z,90.85
2023-01-17T04:16:34.644Z,91.19
2023-01-17T04:18:14.914Z,90.7
2023-01-17T04:19:55.214Z,90.26
2023-01-17T04:21:35.535Z,89.88
2023-01-17T04:23:15.818Z,89.76
2023-01-17T04:24:56.177Z,90.2
2023-01-17T04:26:36.442Z,90.63
2023-01-17T04:28:16.809Z,89.96
2023-01-17T04:29:57.103Z,90.1
2023-01-17T04:31:37.464Z,90.22
2023-01-17T04:33:17.727Z,90.37
2023-01-17T04:34:58.035Z,89.86
2023-01-17T04:36:38.348Z,89.97
2023-01-17T04:38:18.671Z,90.59
2023-01-17T04:39:58.958Z,91.06
2023-01-17T04:41:39.305Z,90.15
2023-01-17T04:43:19.593Z,90.82
2023-01-17T04:44:59.906Z,91.42
2023-01-17T04:46:40.152Z,91.75
2023-01-17T04:48:20.703Z,92.3
2023-01-17T04:50:00.842Z,92.18
2023-01-17T04:51:41.159Z,92.1
2023-01-17T04:53:21.495Z,91.98
2023-01-17T04:55:01.799Z,92.37
2023-01-17T04:56:42.125Z,92.36
2023-01-17T04:58:22.419Z,92.63
2023-01-17T05:00:02.722Z,92.84
2023-01-17T05:01:43.134Z,92.63
2023-01-17T05:03:23.386Z,92.89
2023-01-17T05:05:03.740Z,93.12
2023-01-17T05:06:44.038Z,93.53
2023-01-17T05:08:24.385Z,93.62
2023-01-17T05:11:45.088Z,93.82
2023-01-17T05:13:25.332Z,94.05
2023-01-17T05:15:05.728Z,94
2023-01-17T05:16:45.968Z,94.12
2023-01-17T05:18:26.246Z,94.36
2023-01-17T05:20:06.561Z,94.39
2023-01-17T05:21:46.903Z,94.59
2023-01-17T05:23:27.218Z,94.77
2023-01-17T05:25:07.592Z,94.68
2023-01-17T05:26:50.277Z,94.29
2023-01-17T05:28:28.286Z,94.33
2023-01-17T05:30:08.656Z,94.39
2023-01-17T05:31:49.042Z,94.37
2023-01-17T05:33:29.410Z,94.45
2023-01-17T05:35:09.820Z,94.49
2023-01-17T05:36:50.218Z,94.7
2023-01-17T05:38:30.588Z,94.31
2023-01-17T05:40:10.978Z,94.05
2023-01-17T05:41:51.377Z,94.18
2023-01-17T05:43:31.836Z,94.22
2023-01-17T05:45:12.200Z,94.32
2023-01-17T05:46:52.576Z,94.25
2023-01-17T05:48:32.893Z,93.91
2023-01-17T05:50:13.317Z,93.76
2023-01-17T05:51:55.011Z,93.77
2023-01-17T05:53:34.147Z,93.96
2023-01-17T05:55:14.498Z,94.28
2023-01-17T05:56:54.919Z,94.34
2023-01-17T05:58:35.267Z,94.46
2023-01-17T06:00:15.586Z,94.71
2023-01-17T06:01:55.865Z,94.8
2023-01-17T06:03:36.133Z,94.91
2023-01-17T06:05:16.461Z,95.02
2023-01-17T06:06:56.805Z,94.95
2023-01-17T06:08:37.145Z,95.02
2023-01-17T06:10:17.456Z,94.93
2023-01-17T06:11:57.786Z,94.64
2023-01-17T06:13:38.053Z,94.67
2023-01-17T06:15:18.343Z,94.89
2023-01-17T06:16:58.647Z,94.86
2023-01-17T06:18:38.968Z,94.82
2023-01-17T06:20:19.244Z,94.79
2023-01-17T06:21:59.556Z,94.8
2023-01-17T06:23:39.865Z,94.9
2023-01-17T06:25:20.160Z,94.63
2023-01-17T06:27:00.448Z,94.69
2023-01-17T06:28:40.752Z,94.15
2023-01-17T06:30:21.019Z,94.11
2023-01-17T06:32:01.809Z,93.74
2023-01-17T06:33:41.653Z,93.74
2023-01-17T06:35:22.051Z,93.93
2023-01-17T06:37:02.459Z,94.22
2023-01-17T06:38:42.838Z,94.06
2023-01-17T06:40:23.112Z,93.95
2023-01-17T06:42:03.477Z,93.66
2023-01-17T06:43:43.780Z,93.83
2023-01-17T06:45:24.087Z,93.97
2023-01-17T06:47:04.441Z,94.06
2023-01-17T06:48:44.785Z,93.92
2023-01-17T06:50:25.130Z,93.86
2023-01-17T06:52:05.501Z,94.02
2023-01-17T06:53:45.788Z,94.11
2023-01-17T06:55:26.159Z,94.13
2023-01-17T06:57:06.457Z,94.21
2023-01-17T06:58:46.769Z,94.32
2023-01-17T07:00:27.214Z,94.25
2023-01-17T07:02:07.524Z,94.3
2023-01-17T07:03:47.841Z,94.31
2023-01-17T07:05:28.219Z,94.37
2023-01-17T07:07:08.606Z,94.44
2023-01-17T07:08:48.919Z,94.55
2023-01-17T07:10:29.246Z,94.57
2023-01-17T07:12:09.599Z,94.7
2023-01-17T07:13:49.963Z,94.64
2023-01-17T07:15:30.342Z,94.46
2023-01-17T07:17:10.629Z,94.58
2023-01-17T07:18:50.997Z,94.52
2023-01-17T07:20:31.371Z,94.45
2023-01-17T07:22:11.701Z,94.52
2023-01-17T07:23:52.029Z,94.73
2023-01-17T07:25:32.329Z,94.76
2023-01-17T07:27:12.709Z,94.72
2023-01-17T07:28:53.050Z,94.66
2023-01-17T07:30:33.416Z,94.62
2023-01-17T07:32:13.770Z,94.52
2023-01-17T07:33:54.054Z,94.68
2023-01-17T07:35:34.402Z,94.76
2023-01-17T07:37:15.426Z,94.86
2023-01-17T07:38:54.987Z,94.75
2023-01-17T07:40:41.827Z,94.84
2023-01-17T07:42:15.685Z,94.9
2023-01-17T07:43:56.477Z,94.8
2023-01-17T07:45:36.275Z,94.86
2023-01-17T07:47:16.582Z,94.85
2023-01-17T07:48:56.925Z,94.62
2023-01-17T07:50:37.226Z,94.58
2023-01-17T07:52:18.350Z,94.3
2023-01-17T07:53:57.883Z,94.21
2023-01-17T07:55:38.184Z,94.09
2023-01-17T07:57:18.593Z,93.85
2023-01-17T07:58:58.863Z,93.74
2023-01-17T08:00:39.193Z,93.64
2023-01-17T08:02:19.509Z,93.39
2023-01-17T08:03:59.987Z,93.7
2023-01-17T08:05:40.359Z,93.86
2023-01-17T08:07:20.717Z,93.84
2023-01-17T08:09:01.011Z,93.88
2023-01-17T08:10:41.372Z,93.74
2023-01-17T08:12:21.842Z,93.83
2023-01-17T08:14:02.234Z,94.02
2023-01-17T08:15:42.639Z,93.89
2023-01-17T08:17:22.999Z,93.7
2023-01-17T08:19:03.468Z,93.59
2023-01-17T08:20:43.880Z,93.45
2023-01-17T08:22:24.274Z,93.11
2023-01-17T08:24:04.690Z,93.15
2023-01-17T08:25:45.102Z,92.74
2023-01-17T08:27:25.539Z,92.82
2023-01-17T08:29:05.973Z,92.9
2023-01-17T08:30:46.392Z,93.05
2023-01-17T08:32:26.773Z,93.22
2023-01-17T08:35:47.609Z,93.13
2023-01-17T08:37:27.821Z,93.75
2023-01-17T08:39:08.126Z,93.87
2023-01-17T08:40:48.461Z,93.45
2023-01-17T08:42:28.761Z,93.16
2023-01-17T08:44:09.112Z,92.05
2023-01-17T08:45:49.455Z,91.93
2023-01-17T08:47:29.701Z,91.5
2023-01-17T08:49:10.083Z,90.77
2023-01-17T08:50:50.362Z,90.61
2023-01-17T08:52:30.700Z,90.83
2023-01-17T08:54:11.044Z,90.78
2023-01-17T08:55:51.463Z,90.34
2023-01-17T08:57:31.833Z,90.67
2023-01-17T08:59:12.121Z,90.51
2023-01-17T09:00:52.510Z,89.98
2023-01-17T09:02:32.778Z,89.49
2023-01-17T09:04:13.269Z,88.91
2023-01-17T09:05:53.564Z,88.78
2023-01-17T09:07:33.903Z,88.03
2023-01-17T09:09:14.222Z,88.58
2023-01-17T09:10:54.532Z,88.48
2023-01-17T09:12:34.871Z,88.93
2023-01-17T09:14:15.145Z,89.23
2023-01-17T09:15:55.498Z,88.7
2023-01-17T09:17:35.794Z,88.64
2023-01-17T09:19:16.104Z,88.75
2023-01-17T09:20:56.405Z,88.63
2023-01-17T09:22:36.729Z,88.06
2023-01-17T09:24:17.145Z,87.61
2023-01-17T09:25:57.603Z,87.38
2023-01-17T09:27:37.932Z,87.92
2023-01-17T09:29:18.279Z,88.05
2023-01-17T09:30:58.754Z,85.39
2023-01-17T09:32:39.055Z,86.22
2023-01-17T09:34:19.441Z,85.92
2023-01-17T09:35:59.869Z,85.63
2023-01-17T09:37:40.274Z,84.58
2023-01-17T09:39:20.625Z,84.7
2023-01-17T09:41:00.972Z,83.78
2023-01-17T09:42:41.401Z,84.6
2023-01-17T09:44:21.746Z,83.94
2023-01-17T09:46:02.195Z,84.21
2023-01-17T09:47:42.585Z,84.69
2023-01-17T09:49:23.063Z,84.26
2023-01-17T09:51:03.395Z,83.86
2023-01-17T09:52:43.703Z,84.54
2023-01-17T09:54:23.976Z,85.25
2023-01-17T09:56:04.249Z,85.62
2023-01-17T09:57:44.595Z,85.52
2023-01-17T09:59:32.849Z,85.39
2023-01-17T10:01:05.232Z,85.21
2023-01-17T10:02:45.670Z,84.47
2023-01-17T10:04:25.815Z,85.49
2023-01-17T10:06:06.069Z,85.08
2023-01-17T10:07:46.363Z,84.91
2023-01-17T10:09:26.627Z,84.12
2023-01-17T10:11:06.933Z,84.02
2023-01-17T10:12:47.225Z,84
2023-01-17T10:14:27.555Z,84.88
2023-01-17T10:16:07.827Z,84.36
2023-01-17T10:17:48.110Z,82.96
2023-01-17T10:21:08.759Z,83.27
2023-01-17T10:22:49.064Z,83.82
2023-01-17T10:24:29.400Z,82.84
2023-01-17T10:26:09.677Z,83.82
2023-01-17T10:27:49.976Z,83.27
2023-01-17T10:29:30.310Z,83.08
2023-01-17T10:31:10.685Z,82.68
2023-01-17T10:32:50.996Z,83.64
2023-01-17T10:34:31.184Z,84.13
2023-01-17T10:36:11.447Z,84.31
2023-01-17T10:37:51.768Z,82.59
2023-01-17T10:39:32.178Z,83.74
2023-01-17T10:41:12.582Z,83.69
2023-01-17T10:42:52.990Z,82.24
2023-01-17T10:44:33.357Z,81.76
2023-01-17T10:46:13.822Z,82.16
2023-01-17T10:47:54.207Z,82.7
2023-01-17T10:49:34.669Z,83.97
2023-01-17T10:51:21.719Z,83.76
2023-01-17T10:53:02.063Z,83.66
2023-01-17T10:54:42.398Z,83.97
2023-01-17T10:56:22.725Z,83.02
2023-01-17T10:58:03.046Z,82.88
2023-01-17T10:59:43.360Z,83.81
2023-01-17T11:01:23.868Z,83.14
2023-01-17T11:03:04.057Z,83.73
2023-01-17T11:04:44.361Z,84.07
2023-01-17T11:06:24.685Z,84
2023-01-17T11:08:05.026Z,82.94
2023-01-17T11:09:45.284Z,83.43
2023-01-17T11:11:25.595Z,82.89
2023-01-17T11:13:05.945Z,82.45
2023-01-17T11:14:46.255Z,82.06
2023-01-17T11:16:27.607Z,82.05
2023-01-17T11:18:06.871Z,83.52
2023-01-17T11:19:47.178Z,81.9
2023-01-17T11:21:27.574Z,81.94
2023-01-17T11:23:07.828Z,83.72
2023-01-17T11:24:48.132Z,83.13
2023-01-17T11:26:28.468Z,79.59
2023-01-17T11:28:08.810Z,79.63
2023-01-17T11:29:49.086Z,81.75
2023-01-17T11:31:29.407Z,79.09
2023-01-17T11:33:09.711Z,79.63
2023-01-17T11:34:50.068Z,79.41
2023-01-17T11:36:30.399Z,79.9
2023-01-17T11:38:10.719Z,79.01
2023-01-17T11:39:51.046Z,78.28
2023-01-17T11:41:31.326Z,79.64
2023-01-17T11:43:11.699Z,81.63
2023-01-17T11:44:52.002Z,81.17
2023-01-17T11:46:32.418Z,77.48
2023-01-17T11:48:12.728Z,76.89
2023-01-17T11:49:52.947Z,77.16
2023-01-17T11:51:33.231Z,78.03
2023-01-17T11:53:13.561Z,76.41
2023-01-17T11:54:53.876Z,74.04
2023-01-17T11:56:34.199Z,73.07
2023-01-17T11:58:14.468Z,71.8
2023-01-17T11:59:54.816Z,70.15
2023-01-17T12:01:35.080Z,70.44
2023-01-17T12:03:15.459Z,69.49
2023-01-17T12:04:55.965Z,69.91
2023-01-17T12:06:44.867Z,69.74
2023-01-17T12:08:16.577Z,69.35
2023-01-17T12:09:56.899Z,67.59
2023-01-17T12:11:37.195Z,68.03
2023-01-17T12:13:17.527Z,69.37
2023-01-17T12:14:57.833Z,67.55
2023-01-17T12:16:38.176Z,68.2
2023-01-17T12:18:18.453Z,68.43
2023-01-17T12:19:58.788Z,68.07
2023-01-17T12:23:19.680Z,68.43
2023-01-17T12:25:00.168Z,69.35
2023-01-17T12:26:40.440Z,69.66
2023-01-17T12:28:20.817Z,71.94
2023-01-17T12:30:01.236Z,71.46
2023-01-17T12:31:41.622Z,72
2023-01-17T12:33:21.964Z,72.97
2023-01-17T12:35:02.369Z,73.63
2023-01-17T12:36:42.715Z,73.09
2023-01-17T12:38:32.141Z,73.8
2023-01-17T12:40:03.521Z,72.99
2023-01-17T12:41:43.917Z,73.72
2023-01-17T12:43:24.199Z,75.34
2023-01-17T12:45:04.602Z,76.23
2023-01-17T12:46:45.070Z,76.13
2023-01-17T12:48:25.372Z,75.3
2023-01-17T12:50:05.715Z,75.52
2023-01-17T12:51:47.363Z,75.58
2023-01-17T12:53:26.491Z,78.07
2023-01-17T12:55:06.918Z,78.14
2023-01-17T12:56:47.355Z,76.98
2023-01-17T12:58:27.802Z,78.47
2023-01-17T13:01:48.744Z,76.9
2023-01-17T13:03:29.003Z,78.33
2023-01-17T13:05:09.358Z,77.69
2023-01-17T13:06:49.763Z,77.11
2023-01-17T13:08:30.029Z,76.78
2023-01-17T13:10:10.250Z,79
2023-01-17T13:11:50.552Z,78.27
2023-01-17T13:13:30.821Z,77.44
2023-01-17T13:15:11.114Z,77.98
2023-01-17T13:16:51.507Z,75.76
2023-01-17T13:18:37.923Z,76.36
2023-01-17T13:20:18.234Z,75.15
2023-01-17T13:22:03.849Z,77.41
2023-01-17T13:23:44.217Z,78.35
2023-01-17T13:25:24.640Z,75.37
2023-01-17T13:27:05.035Z,72.8
2023-01-17T13:28:45.471Z,72.83
2023-01-17T13:30:25.749Z,70.47
2023-01-17T13:32:06.016Z,73.02
2023-01-17T13:33:46.312Z,70.22
2023-01-17T13:35:26.622Z,71.34
2023-01-17T13:37:06.903Z,69.69
2023-01-17T13:38:47.225Z,68.14
2023-01-17T13:40:29.531Z,69.29
2023-01-17T13:42:07.844Z,66.77
2023-01-17T13:43:48.060Z,69.13
2023-01-17T13:45:28.505Z,65.76
2023-01-17T13:47:08.784Z,66.88
2023-01-17T13:48:49.181Z,67.24
2023-01-17T13:50:29.484Z,65.17
2023-01-17T13:52:09.778Z,66.06
2023-01-17T13:53:50.084Z,66.28
2023-01-17T13:55:30.334Z,67
2023-01-17T13:57:10.605Z,64
2023-01-17T13:58:50.924Z,65.04
2023-01-17T14:00:31.202Z,64.08
2023-01-17T14:02:11.488Z,67.01
2023-01-17T14:03:51.865Z,66.86
2023-01-17T14:05:32.079Z,67.71
2023-01-17T14:07:12.327Z,67.77
2023-01-17T14:08:52.644Z,69.59
2023-01-17T14:10:33.096Z,69.25
2023-01-17T14:12:13.517Z,70.44
2023-01-17T14:13:53.840Z,68.22
2023-01-17T14:15:34.220Z,68.76
2023-01-17T14:17:14.816Z,69.74
2023-01-17T14:18:55.042Z,70.52
2023-01-17T14:20:35.459Z,72.33
2023-01-17T14:22:15.812Z,73.19
2023-01-17T14:23:56.166Z,72.22
2023-01-17T14:25:36.551Z,72.65
2023-01-17T14:27:17.985Z,73.56
2023-01-17T14:27:17.997Z,73.56
2023-01-17T14:27:18.021Z,73.56
2023-01-17T14:27:18.036Z,73.56
2023-01-17T14:27:18.042Z,73.56
2023-01-17T14:27:18.048Z,73.56
2023-01-17T14:28:57.229Z,72.87
2023-01-17T14:30:37.620Z,73.3
2023-01-17T14:32:17.996Z,75.07
2023-01-17T14:34:00.541Z,75.99
2023-01-17T14:35:38.644Z,73.7
2023-01-17T14:37:18.962Z,74.27
2023-01-17T14:38:59.284Z,74.51
2023-01-17T14:40:39.592Z,75.49
2023-01-17T14:42:19.824Z,78.1
2023-01-17T14:44:00.201Z,77.66
2023-01-17T14:45:40.497Z,77
2023-01-17T14:47:20.872Z,75.85
2023-01-17T14:49:01.167Z,76.63
2023-01-17T14:50:42.455Z,74.76
2023-01-17T14:52:21.787Z,74.01
2023-01-17T14:54:02.198Z,73.95
2023-01-17T14:55:42.467Z,77.42
2023-01-17T14:57:22.798Z,78.99
2023-01-17T14:59:03.114Z,79.8
2023-01-17T15:00:43.418Z,80.89
2023-01-17T15:02:24.021Z,81.86
2023-01-17T15:04:04.066Z,82.27
2023-01-17T15:05:44.332Z,82.26
2023-01-17T15:07:24.626Z,83.18
2023-01-17T15:09:05.027Z,83.33
2023-01-17T15:10:45.174Z,84.09
2023-01-17T15:12:25.651Z,84.66
2023-01-17T15:14:06.063Z,85.27
2023-01-17T15:15:46.308Z,85.82
2023-01-17T15:17:26.645Z,86.93
2023-01-17T15:19:07.326Z,87.4
2023-01-17T15:19:07.338Z,87.4
2023-01-17T15:19:07.346Z,87.4
2023-01-17T15:19:07.352Z,87.4
2023-01-17T15:19:07.359Z,87.4
2023-01-17T15:19:07.377Z,87.4
2023-01-17T15:20:50.341Z,87.82
2023-01-17T15:22:27.614Z,87.97
2023-01-17T15:24:08.039Z,88.16
2023-01-17T15:25:48.433Z,88.46
2023-01-17T15:27:28.796Z,88.87
2023-01-17T15:29:09.217Z,88.71
2023-01-17T15:30:52.131Z,89.07
2023-01-17T15:32:29.968Z,89.09
2023-01-17T15:34:10.320Z,89.43
2023-01-17T15:35:50.733Z,89.5
2023-01-17T15:37:31.125Z,89.52
2023-01-17T15:39:11.427Z,89.6
2023-01-17T15:40:51.783Z,89.85
2023-01-17T15:42:32.156Z,90.19
2023-01-17T15:44:12.531Z,91.15
2023-01-17T15:45:53.063Z,91.81
2023-01-17T15:47:33.414Z,92.1
2023-01-17T15:49:15.527Z,92.27
2023-01-17T15:50:55.128Z,92.18
2023-01-17T15:52:34.499Z,92.5
2023-01-17T15:54:14.739Z,92.48
2023-01-17T15:55:55.125Z,92.26
2023-01-17T15:57:36.942Z,92.14
2023-01-17T15:59:15.952Z,92.16
2023-01-17T16:00:56.464Z,92.29
2023-01-17T16:02:36.916Z,92.18
2023-01-17T16:04:17.222Z,93.07
2023-01-17T16:05:57.670Z,93.56
2023-01-17T16:07:37.971Z,93.81
2023-01-17T16:09:18.337Z,94.02
2023-01-17T16:10:58.700Z,94.29
2023-01-17T16:12:39.084Z,94.31
2023-01-17T16:14:19.468Z,94.29
2023-01-17T16:15:59.954Z,94.15
2023-01-17T16:17:40.252Z,93.59
2023-01-17T16:19:20.628Z,93.68
2023-01-17T16:21:00.875Z,94.25
2023-01-17T16:22:41.214Z,94.7
2023-01-17T16:24:21.527Z,94.58
2023-01-17T16:26:01.871Z,95
2023-01-17T16:27:42.241Z,95.35
2023-01-17T16:29:22.642Z,95.59
2023-01-17T16:31:02.988Z,95.6
2023-01-17T16:32:43.334Z,95.7
2023-01-17T16:34:23.670Z,95.42
2023-01-17T16:36:04.048Z,95.13
2023-01-17T16:37:44.476Z,94.82
2023-01-17T16:39:24.822Z,94.08
2023-01-17T16:41:05.155Z,93.99
2023-01-17T16:42:45.562Z,94.25
2023-01-17T16:44:25.961Z,94.61
2023-01-17T16:46:06.450Z,95.15
2023-01-17T16:47:46.857Z,95.43
2023-01-17T16:49:27.151Z,95.78
2023-01-17T16:51:07.488Z,96.02
2023-01-17T16:52:47.775Z,96.16
2023-01-17T16:54:28.092Z,96.2
2023-01-17T16:56:08.399Z,96.01
2023-01-17T16:57:48.854Z,95.98
2023-01-17T16:59:42.381Z,95.82
2023-01-17T17:01:09.457Z,95.74
2023-01-17T17:02:49.632Z,95.8
2023-01-17T17:04:29.868Z,95.95
2023-01-17T17:06:10.156Z,95.84
2023-01-17T17:07:51.872Z,95.73
2023-01-17T17:09:30.737Z,95.77
2023-01-17T17:11:11.099Z,96
2023-01-17T17:12:51.513Z,96.21
2023-01-17T17:14:31.921Z,96.4
2023-01-17T17:16:12.331Z,96.91
2023-01-17T17:17:53.227Z,97.26
2023-01-17T17:19:32.915Z,97.38
2023-01-17T17:21:13.184Z,97.39
2023-01-17T17:22:53.505Z,97.49
2023-01-17T17:24:33.812Z,97.49
2023-01-17T17:26:14.090Z,97.58
2023-01-17T17:27:54.642Z,97.67
2023-01-17T17:29:34.681Z,97.78
2023-01-17T17:31:18.105Z,97.83
2023-01-17T17:32:55.249Z,98.05
2023-01-17T17:34:35.542Z,98.01
2023-01-17T17:36:15.846Z,97.67
2023-01-17T17:37:56.167Z,97.73
2023-01-17T17:39:36.416Z,97.83
2023-01-17T17:41:16.774Z,98.05
2023-01-17T17:42:57.188Z,98.21
2023-01-17T17:44:37.492Z,98.32
2023-01-17T17:46:17.953Z,98.52
2023-01-17T17:47:58.240Z,98.6
2023-01-17T17:49:43.465Z,98.65
2023-01-17T17:51:29.658Z,98.58
2023-01-17T17:53:10.039Z,98.56
2023-01-17T17:54:50.446Z,98.57
2023-01-17T17:56:30.760Z,98.54
2023-01-17T17:58:11.151Z,98.63
2023-01-17T17:59:51.539Z,98.57
2023-01-17T18:01:31.977Z,98.37
2023-01-17T18:03:12.254Z,98.22
2023-01-17T18:04:52.594Z,98.19
2023-01-17T18:06:32.847Z,98.35
2023-01-17T18:08:13.158Z,98.51
2023-01-17T18:09:53.480Z,98.73
2023-01-17T18:11:33.797Z,98.85
2023-01-17T18:13:14.101Z,98.96
2023-01-17T18:14:54.424Z,98.95
2023-01-17T18:16:34.666Z,99.01
2023-01-17T18:18:14.950Z,99
2023-01-17T18:19:55.323Z,98.99
2023-01-17T18:21:35.592Z,99.17
2023-01-17T18:23:15.843Z,99.32
2023-01-17T18:24:56.126Z,99.35
2023-01-17T18:26:36.478Z,99.31
2023-01-17T18:28:16.739Z,99.24
2023-01-17T18:29:57.064Z,99.19
2023-01-17T18:31:37.395Z,99.04
2023-01-17T18:33:17.640Z,99.03
2023-01-17T18:34:57.908Z,99.15
2023-01-17T18:36:38.238Z,99.21
2023-01-17T18:38:18.522Z,99.35
2023-01-17T18:39:58.820Z,99.47
2023-01-17T18:41:39.164Z,99.55
2023-01-17T18:43:19.431Z,99.6
2023-01-17T18:44:59.698Z,99.58
2023-01-17T18:46:40.293Z,99.52
2023-01-17T18:48:20.481Z,99.44
2023-01-17T18:50:00.934Z,99.3
2023-01-17T18:51:41.305Z,99.31
2023-01-17T18:53:21.604Z,99.37
2023-01-17T18:55:01.882Z,99.43
2023-01-17T18:56:42.167Z,99.46
2023-01-17T18:58:22.489Z,99.42
2023-01-17T19:00:02.805Z,99.48
2023-01-17T19:01:43.114Z,99.43
2023-01-17T19:03:23.363Z,99.51
2023-01-17T19:05:03.726Z,99.69
2023-01-17T19:06:44.030Z,99.74
2023-01-17T19:08:24.327Z,99.77
2023-01-17T19:10:04.652Z,99.77
2023-01-17T19:11:45.061Z,99.69
2023-01-17T19:13:25.269Z,99.77
2023-01-17T19:15:05.553Z,99.88
2023-01-17T19:16:45.878Z,99.88
2023-01-17T19:18:26.168Z,99.8
2023-01-17T19:20:06.495Z,99.75
2023-01-17T19:21:46.742Z,99.71
2023-01-17T19:23:27.057Z,99.68
2023-01-17T19:25:07.389Z,99.75
2023-01-17T19:26:47.706Z,99.78
2023-01-17T19:28:27.993Z,99.82
2023-01-17T19:30:08.322Z,99.84
2023-01-17T19:31:48.659Z,99.86
2023-01-17T19:33:28.893Z,99.99
2023-01-17T19:35:09.206Z,99.98
2023-01-17T19:36:49.512Z,99.85
2023-01-17T19:38:29.767Z,99.71
2023-01-17T19:40:10.052Z,99.63
2023-01-17T19:41:53.422Z,99.67
2023-01-17T19:43:30.637Z,99.67
2023-01-17T19:45:13.989Z,99.75
2023-01-17T19:46:51.252Z,99.87
2023-01-17T19:48:31.566Z,99.95
2023-01-17T19:50:11.902Z,99.93
2023-01-17T19:51:52.172Z,99.99
2023-01-17T19:53:32.480Z,99.96
2023-01-17T19:55:12.782Z,100
2023-01-17T19:56:53.100Z,100
2023-01-17T19:58:33.385Z,100
2023-01-17T20:00:13.692Z,100
2023-01-17T20:01:54.098Z,100
2023-01-17T20:03:34.339Z,100
2023-01-17T20:05:14.571Z,100
2023-01-17T20:06:54.929Z,100
2023-01-17T20:08:35.183Z,100
2023-01-17T20:10:15.460Z,100
2023-01-17T20:11:55.768Z,100
2023-01-17T20:13:36.064Z,100
2023-01-17T20:15:16.381Z,100
2023-01-17T20:16:56.681Z,100
2023-01-17T20:18:36.974Z,100
2023-01-17T20:20:17.283Z,100
2023-01-17T20:21:57.600Z,100
2023-01-17T20:23:37.867Z,100
2023-01-17T20:25:18.182Z,100
2023-01-17T20:26:58.467Z,100
2023-01-17T20:28:44.760Z,100
2023-01-17T20:30:25.076Z,100
2023-01-17T20:32:05.340Z,100
2023-01-17T20:33:45.631Z,100
2023-01-17T20:35:25.963Z,100
2023-01-17T20:37:06.231Z,100
2023-01-17T20:38:46.517Z,100
2023-01-17T20:40:26.851Z,100
2023-01-17T20:42:07.117Z,100
2023-01-17T20:43:47.414Z,100
2023-01-17T20:45:27.687Z,100
2023-01-17T20:47:08.014Z,100
2023-01-17T20:48:48.290Z,100
2023-01-17T20:50:28.623Z,100
2023-01-17T20:52:08.869Z,100
2023-01-17T20:53:49.193Z,100
2023-01-17T20:55:29.544Z,100
2023-01-17T20:57:09.832Z,100
2023-01-17T20:58:51.634Z,100
2023-01-17T21:00:30.442Z,100
2023-01-17T21:02:11.067Z,100
2023-01-17T21:03:51.080Z,100
2023-01-17T21:05:31.393Z,100
2023-01-17T21:07:11.733Z,100
2023-01-17T21:08:52.005Z,100
2023-01-17T21:10:32.376Z,100
2023-01-17T21:12:12.690Z,99.97
2023-01-17T21:13:52.963Z,99.89
2023-01-17T21:15:33.261Z,99.75
2023-01-17T21:17:13.562Z,99.68
2023-01-17T21:18:53.853Z,99.69
2023-01-17T21:20:34.157Z,99.67
2023-01-17T21:22:14.477Z,99.69
2023-01-17T21:23:54.748Z,99.69
2023-01-17T21:25:35.046Z,99.69
2023-01-17T21:27:15.377Z,99.67
2023-01-17T21:28:55.684Z,99.77
2023-01-17T21:30:36.039Z,99.92
2023-01-17T21:32:16.266Z,100
2023-01-17T21:33:56.576Z,100
2023-01-17T21:35:36.887Z,100
2023-01-17T21:37:17.205Z,100